sensor_id;sensor_type;location;lat;lon;timestamp;temperature;humidity
8711;DHT22;4392;47.400;8.062;2023-05-07T00:01:45;18.00;99.90
8711;DHT22;4392;47.400;8.062;2023-05-07T00:04:10;18.00;99.90
8711;DHT22;4392;47.400;8.062;2023-05-07T00:06:36;18.00;99.90
8711;DHT22;4392;47.400;8.062;2023-05-07T00:09:05;17.80;99.90
8711;DHT22;4392;47.400;8.062;2023-05-07T00:11:33;17.80;99.90
8711;DHT22;4392;47.400;8.062;2023-05-07T00:13:59;17.70;99.90
8711;DHT22;4392;47.400;8.062;2023-05-07T00:16:29;17.80;99.90
8711;DHT22;4392;47.400;8.062;2023-05-07T00:19:00;17.90;99.90
8711;DHT22;4392;47.400;8.062;2023-05-07T00:21:25;18.00;99.90
8711;DHT22;4392;47.400;8.062;2023-05-07T00:24:00;18.00;99.90
8711;DHT22;4392;47.400;8.062;2023-05-07T00:26:28;17.90;99.90
8711;DHT22;4392;47.400;8.062;2023-05-07T00:28:54;17.90;99.90
8711;DHT22;4392;47.400;8.062;2023-05-07T00:31:29;17.90;99.90
8711;DHT22;4392;47.400;8.062;2023-05-07T00:33:58;17.90;99.90
8711;DHT22;4392;47.400;8.062;2023-05-07T00:36:23;17.50;99.90
8711;DHT22;4392;47.400;8.062;2023-05-07T00:38:51;17.50;99.90
8711;DHT22;4392;47.400;8.062;2023-05-07T00:41:19;17.50;99.90
8711;DHT22;4392;47.400;8.062;2023-05-07T00:43:45;17.40;99.90
8711;DHT22;4392;47.400;8.062;2023-05-07T00:46:11;17.50;99.90
8711;DHT22;4392;47.400;8.062;2023-05-07T00:48:37;17.60;99.90
8711;DHT22;4392;47.400;8.062;2023-05-07T00:51:10;17.70;99.90
8711;DHT22;4392;47.400;8.062;2023-05-07T00:53:37;17.70;99.90
8711;DHT22;4392;47.400;8.062;2023-05-07T00:56:09;17.70;99.90
8711;DHT22;4392;47.400;8.062;2023-05-07T00:58:35;17.70;99.90
8711;DHT22;4392;47.400;8.062;2023-05-07T01:01:01;17.50;99.90
8711;DHT22;4392;47.400;8.062;2023-05-07T01:03:27;17.50;99.90
8711;DHT22;4392;47.400;8.062;2023-05-07T01:05:53;17.40;99.90
8711;DHT22;4392;47.400;8.062;2023-05-07T01:08:20;17.40;99.90
8711;DHT22;4392;47.400;8.062;2023-05-07T01:10:51;17.40;99.90
8711;DHT22;4392;47.400;8.062;2023-05-07T01:13:19;17.40;99.90
8711;DHT22;4392;47.400;8.062;2023-05-07T01:16:13;17.50;99.90
8711;DHT22;4392;47.400;8.062;2023-05-07T01:18:43;17.50;99.90
8711;DHT22;4392;47.400;8.062;2023-05-07T01:21:10;17.50;99.90
8711;DHT22;4392;47.400;8.062;2023-05-07T01:23:36;17.60;99.90
8711;DHT22;4392;47.400;8.062;2023-05-07T01:26:02;17.60;99.90
8711;DHT22;4392;47.400;8.062;2023-05-07T01:28:31;17.60;99.90
8711;DHT22;4392;47.400;8.062;2023-05-07T01:31:05;17.50;99.90
8711;DHT22;4392;47.400;8.062;2023-05-07T01:33:34;17.50;99.90
8711;DHT22;4392;47.400;8.062;2023-05-07T01:36:07;17.50;99.90
8711;DHT22;4392;47.400;8.062;2023-05-07T01:38:36;17.50;99.90
8711;DHT22;4392;47.400;8.062;2023-05-07T01:41:04;17.40;99.90
8711;DHT22;4392;47.400;8.062;2023-05-07T01:43:30;17.30;99.90
8711;DHT22;4392;47.400;8.062;2023-05-07T01:45:57;17.10;99.90
8711;DHT22;4392;47.400;8.062;2023-05-07T01:48:24;16.90;99.90
8711;DHT22;4392;47.400;8.062;2023-05-07T01:50:54;16.60;99.90
8711;DHT22;4392;47.400;8.062;2023-05-07T01:53:20;16.90;99.90
8711;DHT22;4392;47.400;8.062;2023-05-07T01:55:46;17.00;99.90
8711;DHT22;4392;47.400;8.062;2023-05-07T01:58:12;17.10;99.90
8711;DHT22;4392;47.400;8.062;2023-05-07T02:00:37;17.10;99.90
8711;DHT22;4392;47.400;8.062;2023-05-07T02:03:07;17.10;99.90
8711;DHT22;4392;47.400;8.062;2023-05-07T02:05:33;17.20;99.90
8711;DHT22;4392;47.400;8.062;2023-05-07T02:08:01;17.20;99.90
8711;DHT22;4392;47.400;8.062;2023-05-07T02:10:29;17.20;99.90
8711;DHT22;4392;47.400;8.062;2023-05-07T02:12:57;17.20;99.90
8711;DHT22;4392;47.400;8.062;2023-05-07T02:15:23;17.20;99.90
8711;DHT22;4392;47.400;8.062;2023-05-07T02:18:08;17.20;99.90
8711;DHT22;4392;47.400;8.062;2023-05-07T02:20:36;17.20;99.90
8711;DHT22;4392;47.400;8.062;2023-05-07T02:23:01;17.00;99.90
8711;DHT22;4392;47.400;8.062;2023-05-07T02:25:27;16.60;99.90
8711;DHT22;4392;47.400;8.062;2023-05-07T02:27:55;16.70;99.90
8711;DHT22;4392;47.400;8.062;2023-05-07T02:30:20;16.90;99.90
8711;DHT22;4392;47.400;8.062;2023-05-07T02:32:50;17.00;99.90
8711;DHT22;4392;47.400;8.062;2023-05-07T02:35:16;17.00;99.90
8711;DHT22;4392;47.400;8.062;2023-05-07T02:37:47;16.90;99.90
8711;DHT22;4392;47.400;8.062;2023-05-07T02:40:13;16.90;99.90
8711;DHT22;4392;47.400;8.062;2023-05-07T02:42:41;16.90;99.90
8711;DHT22;4392;47.400;8.062;2023-05-07T02:45:11;17.00;99.90
8711;DHT22;4392;47.400;8.062;2023-05-07T02:47:42;16.90;99.90
8711;DHT22;4392;47.400;8.062;2023-05-07T02:50:11;16.90;99.90
8711;DHT22;4392;47.400;8.062;2023-05-07T02:52:37;16.70;99.90
8711;DHT22;4392;47.400;8.062;2023-05-07T02:55:11;16.70;99.90
8711;DHT22;4392;47.400;8.062;2023-05-07T02:57:37;16.70;99.90
8711;DHT22;4392;47.400;8.062;2023-05-07T03:00:17;16.80;99.90
8711;DHT22;4392;47.400;8.062;2023-05-07T03:02:46;16.80;99.90
8711;DHT22;4392;47.400;8.062;2023-05-07T03:05:11;16.70;99.90
8711;DHT22;4392;47.400;8.062;2023-05-07T03:07:38;16.80;99.90
8711;DHT22;4392;47.400;8.062;2023-05-07T03:10:12;16.70;99.90
8711;DHT22;4392;47.400;8.062;2023-05-07T03:12:38;16.70;99.90
8711;DHT22;4392;47.400;8.062;2023-05-07T03:15:04;16.60;99.90
8711;DHT22;4392;47.400;8.062;2023-05-07T03:17:32;16.50;99.90
8711;DHT22;4392;47.400;8.062;2023-05-07T03:20:05;16.30;99.90
8711;DHT22;4392;47.400;8.062;2023-05-07T03:22:31;16.10;99.90
8711;DHT22;4392;47.400;8.062;2023-05-07T03:24:58;16.10;99.90
8711;DHT22;4392;47.400;8.062;2023-05-07T03:27:27;16.30;99.90
8711;DHT22;4392;47.400;8.062;2023-05-07T03:29:59;16.30;99.90
8711;DHT22;4392;47.400;8.062;2023-05-07T03:32:25;16.30;99.90
8711;DHT22;4392;47.400;8.062;2023-05-07T03:34:51;16.30;99.90
8711;DHT22;4392;47.400;8.062;2023-05-07T03:37:22;16.20;99.90
8711;DHT22;4392;47.400;8.062;2023-05-07T03:39:58;16.20;99.90
8711;DHT22;4392;47.400;8.062;2023-05-07T03:42:24;16.30;99.90
8711;DHT22;4392;47.400;8.062;2023-05-07T03:44:50;16.40;99.90
8711;DHT22;4392;47.400;8.062;2023-05-07T03:47:15;16.40;99.90
8711;DHT22;4392;47.400;8.062;2023-05-07T03:49:41;16.30;99.90
8711;DHT22;4392;47.400;8.062;2023-05-07T03:52:07;16.30;99.90
8711;DHT22;4392;47.400;8.062;2023-05-07T03:54:38;16.40;99.90
8711;DHT22;4392;47.400;8.062;2023-05-07T03:57:04;16.40;99.90
8711;DHT22;4392;47.400;8.062;2023-05-07T03:59:29;16.50;99.90
8711;DHT22;4392;47.400;8.062;2023-05-07T04:01:55;16.30;99.90
8711;DHT22;4392;47.400;8.062;2023-05-07T04:04:21;16.40;99.90
8711;DHT22;4392;47.400;8.062;2023-05-07T04:06:47;16.30;99.90
8711;DHT22;4392;47.400;8.062;2023-05-07T04:09:13;16.40;99.90
8711;DHT22;4392;47.400;8.062;2023-05-07T04:11:39;16.40;99.90
8711;DHT22;4392;47.400;8.062;2023-05-07T04:14:08;16.40;99.90
8711;DHT22;4392;47.400;8.062;2023-05-07T04:16:39;16.40;99.90
8711;DHT22;4392;47.400;8.062;2023-05-07T04:19:05;16.40;99.90
8711;DHT22;4392;47.400;8.062;2023-05-07T04:21:31;16.30;99.90
8711;DHT22;4392;47.400;8.062;2023-05-07T04:23:56;16.40;99.90
8711;DHT22;4392;47.400;8.062;2023-05-07T04:26:28;16.40;99.90
8711;DHT22;4392;47.400;8.062;2023-05-07T04:28:54;16.40;99.90
8711;DHT22;4392;47.400;8.062;2023-05-07T04:31:20;16.30;99.90
8711;DHT22;4392;47.400;8.062;2023-05-07T04:33:46;16.30;99.90
8711;DHT22;4392;47.400;8.062;2023-05-07T04:36:12;16.20;99.90
8711;DHT22;4392;47.400;8.062;2023-05-07T04:38:41;16.20;99.90
8711;DHT22;4392;47.400;8.062;2023-05-07T04:41:09;16.30;99.90
8711;DHT22;4392;47.400;8.062;2023-05-07T04:43:35;16.30;99.90
8711;DHT22;4392;47.400;8.062;2023-05-07T04:46:05;16.30;99.90
8711;DHT22;4392;47.400;8.062;2023-05-07T04:48:31;16.30;99.90
8711;DHT22;4392;47.400;8.062;2023-05-07T04:50:56;16.30;99.90
8711;DHT22;4392;47.400;8.062;2023-05-07T04:53:22;16.20;99.90
8711;DHT22;4392;47.400;8.062;2023-05-07T04:55:47;16.30;99.90
8711;DHT22;4392;47.400;8.062;2023-05-07T04:58:17;16.30;99.90
8711;DHT22;4392;47.400;8.062;2023-05-07T05:00:43;16.30;99.90
8711;DHT22;4392;47.400;8.062;2023-05-07T05:03:09;16.00;99.90
8711;DHT22;4392;47.400;8.062;2023-05-07T05:05:34;16.00;99.90
8711;DHT22;4392;47.400;8.062;2023-05-07T05:08:02;16.00;99.90
8711;DHT22;4392;47.400;8.062;2023-05-07T05:10:30;16.20;99.90
8711;DHT22;4392;47.400;8.062;2023-05-07T05:12:58;16.20;99.90
8711;DHT22;4392;47.400;8.062;2023-05-07T05:15:23;16.10;99.90
8711;DHT22;4392;47.400;8.062;2023-05-07T05:17:49;16.10;99.90
8711;DHT22;4392;47.400;8.062;2023-05-07T05:20:21;16.10;99.90
8711;DHT22;4392;47.400;8.062;2023-05-07T05:22:46;16.10;99.90
8711;DHT22;4392;47.400;8.062;2023-05-07T05:25:12;16.20;99.90
8711;DHT22;4392;47.400;8.062;2023-05-07T05:27:43;16.30;99.90
8711;DHT22;4392;47.400;8.062;2023-05-07T05:30:09;16.30;99.90
8711;DHT22;4392;47.400;8.062;2023-05-07T05:32:35;16.20;99.90
8711;DHT22;4392;47.400;8.062;2023-05-07T05:35:01;16.20;99.90
8711;DHT22;4392;47.400;8.062;2023-05-07T05:37:27;16.10;99.90
8711;DHT22;4392;47.400;8.062;2023-05-07T05:39:52;15.90;99.90
8711;DHT22;4392;47.400;8.062;2023-05-07T05:42:21;15.70;99.90
8711;DHT22;4392;47.400;8.062;2023-05-07T05:44:47;15.90;99.90
8711;DHT22;4392;47.400;8.062;2023-05-07T05:47:13;15.80;99.90
8711;DHT22;4392;47.400;8.062;2023-05-07T05:49:38;15.90;99.90
8711;DHT22;4392;47.400;8.062;2023-05-07T05:52:04;15.80;99.90
8711;DHT22;4392;47.400;8.062;2023-05-07T05:54:36;15.70;99.90
8711;DHT22;4392;47.400;8.062;2023-05-07T05:57:02;15.80;99.90
8711;DHT22;4392;47.400;8.062;2023-05-07T05:59:29;15.90;99.90
8711;DHT22;4392;47.400;8.062;2023-05-07T06:02:01;16.00;99.90
8711;DHT22;4392;47.400;8.062;2023-05-07T06:04:27;16.10;99.90
8711;DHT22;4392;47.400;8.062;2023-05-07T06:06:52;16.10;99.90
8711;DHT22;4392;47.400;8.062;2023-05-07T06:09:18;15.80;99.90
8711;DHT22;4392;47.400;8.062;2023-05-07T06:11:46;16.10;99.90
8711;DHT22;4392;47.400;8.062;2023-05-07T06:14:12;16.30;99.90
8711;DHT22;4392;47.400;8.062;2023-05-07T06:16:38;16.20;99.90
8711;DHT22;4392;47.400;8.062;2023-05-07T06:19:03;16.10;99.90
8711;DHT22;4392;47.400;8.062;2023-05-07T06:21:29;16.20;99.90
8711;DHT22;4392;47.400;8.062;2023-05-07T06:24:03;16.20;99.90
8711;DHT22;4392;47.400;8.062;2023-05-07T06:26:29;16.30;99.90
8711;DHT22;4392;47.400;8.062;2023-05-07T06:28:55;16.20;99.90
8711;DHT22;4392;47.400;8.062;2023-05-07T06:31:28;16.00;99.90
8711;DHT22;4392;47.400;8.062;2023-05-07T06:34:00;16.00;99.90
8711;DHT22;4392;47.400;8.062;2023-05-07T06:36:28;16.10;99.90
8711;DHT22;4392;47.400;8.062;2023-05-07T06:38:56;16.20;99.90
8711;DHT22;4392;47.400;8.062;2023-05-07T06:41:28;16.10;99.90
8711;DHT22;4392;47.400;8.062;2023-05-07T06:43:53;16.40;99.90
8711;DHT22;4392;47.400;8.062;2023-05-07T06:46:19;16.60;99.90
8711;DHT22;4392;47.400;8.062;2023-05-07T06:48:51;16.90;99.90
8711;DHT22;4392;47.400;8.062;2023-05-07T06:51:18;16.90;99.90
8711;DHT22;4392;47.400;8.062;2023-05-07T06:53:43;17.00;99.90
8711;DHT22;4392;47.400;8.062;2023-05-07T06:56:14;17.00;99.90
8711;DHT22;4392;47.400;8.062;2023-05-07T06:58:40;17.00;99.90
8711;DHT22;4392;47.400;8.062;2023-05-07T07:01:05;16.80;99.90
8711;DHT22;4392;47.400;8.062;2023-05-07T07:03:31;16.60;99.90
8711;DHT22;4392;47.400;8.062;2023-05-07T07:06:01;16.60;99.90
8711;DHT22;4392;47.400;8.062;2023-05-07T07:08:27;16.60;99.90
8711;DHT22;4392;47.400;8.062;2023-05-07T07:10:53;16.70;99.90
8711;DHT22;4392;47.400;8.062;2023-05-07T07:13:21;16.90;99.90
8711;DHT22;4392;47.400;8.062;2023-05-07T07:15:50;16.90;99.90
8711;DHT22;4392;47.400;8.062;2023-05-07T07:18:16;17.10;99.90
8711;DHT22;4392;47.400;8.062;2023-05-07T07:20:41;17.20;99.90
8711;DHT22;4392;47.400;8.062;2023-05-07T07:23:07;17.20;99.90
8711;DHT22;4392;47.400;8.062;2023-05-07T07:25:33;17.40;99.90
8711;DHT22;4392;47.400;8.062;2023-05-07T07:27:59;17.50;99.90
8711;DHT22;4392;47.400;8.062;2023-05-07T07:30:25;17.50;99.90
8711;DHT22;4392;47.400;8.062;2023-05-07T07:32:51;17.50;99.90
8711;DHT22;4392;47.400;8.062;2023-05-07T07:35:20;17.50;99.90
8711;DHT22;4392;47.400;8.062;2023-05-07T07:37:49;17.60;99.90
8711;DHT22;4392;47.400;8.062;2023-05-07T07:40:18;17.70;99.90
8711;DHT22;4392;47.400;8.062;2023-05-07T07:42:43;18.10;99.90
8711;DHT22;4392;47.400;8.062;2023-05-07T07:45:09;18.20;99.90
8711;DHT22;4392;47.400;8.062;2023-05-07T07:47:41;18.10;99.90
8711;DHT22;4392;47.400;8.062;2023-05-07T07:50:07;18.10;99.90
8711;DHT22;4392;47.400;8.062;2023-05-07T07:52:33;18.00;99.90
8711;DHT22;4392;47.400;8.062;2023-05-07T07:55:05;17.90;99.90
8711;DHT22;4392;47.400;8.062;2023-05-07T07:57:31;17.80;99.90
8711;DHT22;4392;47.400;8.062;2023-05-07T07:59:57;18.00;99.90
8711;DHT22;4392;47.400;8.062;2023-05-07T08:02:23;18.10;99.90
8711;DHT22;4392;47.400;8.062;2023-05-07T08:04:48;18.20;99.90
8711;DHT22;4392;47.400;8.062;2023-05-07T08:07:14;18.30;99.90
8711;DHT22;4392;47.400;8.062;2023-05-07T08:09:41;18.30;99.90
8711;DHT22;4392;47.400;8.062;2023-05-07T08:12:07;18.40;99.90
8711;DHT22;4392;47.400;8.062;2023-05-07T08:14:33;18.30;99.90
8711;DHT22;4392;47.400;8.062;2023-05-07T08:17:00;18.50;99.90
8711;DHT22;4392;47.400;8.062;2023-05-07T08:19:26;18.60;99.90
8711;DHT22;4392;47.400;8.062;2023-05-07T08:21:54;19.00;99.90
8711;DHT22;4392;47.400;8.062;2023-05-07T08:24:22;19.40;99.90
8711;DHT22;4392;47.400;8.062;2023-05-07T08:26:48;19.50;99.90
8711;DHT22;4392;47.400;8.062;2023-05-07T08:29:15;19.70;99.90
8711;DHT22;4392;47.400;8.062;2023-05-07T08:31:46;19.70;99.90
8711;DHT22;4392;47.400;8.062;2023-05-07T08:34:11;20.00;99.90
8711;DHT22;4392;47.400;8.062;2023-05-07T08:36:37;19.80;99.90
8711;DHT22;4392;47.400;8.062;2023-05-07T08:39:05;19.90;99.90
8711;DHT22;4392;47.400;8.062;2023-05-07T08:41:34;19.90;99.90
8711;DHT22;4392;47.400;8.062;2023-05-07T08:44:03;19.90;99.90
8711;DHT22;4392;47.400;8.062;2023-05-07T08:46:34;20.10;99.90
8711;DHT22;4392;47.400;8.062;2023-05-07T08:48:59;20.20;99.90
8711;DHT22;4392;47.400;8.062;2023-05-07T08:51:25;20.30;99.90
8711;DHT22;4392;47.400;8.062;2023-05-07T08:53:51;20.40;99.90
8711;DHT22;4392;47.400;8.062;2023-05-07T08:56:17;20.40;99.60
8711;DHT22;4392;47.400;8.062;2023-05-07T08:58:46;20.60;98.20
8711;DHT22;4392;47.400;8.062;2023-05-07T09:01:16;20.50;97.90
8711;DHT22;4392;47.400;8.062;2023-05-07T09:03:46;20.40;97.90
8711;DHT22;4392;47.400;8.062;2023-05-07T09:06:12;19.90;97.40
8711;DHT22;4392;47.400;8.062;2023-05-07T09:08:38;20.00;98.10
8711;DHT22;4392;47.400;8.062;2023-05-07T09:11:03;20.40;97.80
8711;DHT22;4392;47.400;8.062;2023-05-07T09:13:29;20.70;96.90
8711;DHT22;4392;47.400;8.062;2023-05-07T09:16:17;20.90;96.20
8711;DHT22;4392;47.400;8.062;2023-05-07T09:18:51;20.70;96.10
8711;DHT22;4392;47.400;8.062;2023-05-07T09:21:23;20.70;95.50
8711;DHT22;4392;47.400;8.062;2023-05-07T09:23:53;20.70;95.70
8711;DHT22;4392;47.400;8.062;2023-05-07T09:26:24;20.90;95.70
8711;DHT22;4392;47.400;8.062;2023-05-07T09:28:51;21.00;95.20
8711;DHT22;4392;47.400;8.062;2023-05-07T09:31:17;21.10;94.90
8711;DHT22;4392;47.400;8.062;2023-05-07T09:33:43;21.10;94.50
8711;DHT22;4392;47.400;8.062;2023-05-07T09:36:09;21.20;94.60
8711;DHT22;4392;47.400;8.062;2023-05-07T09:38:49;21.30;94.00
8711;DHT22;4392;47.400;8.062;2023-05-07T09:41:15;21.20;92.80
8711;DHT22;4392;47.400;8.062;2023-05-07T09:43:41;20.90;93.90
8711;DHT22;4392;47.400;8.062;2023-05-07T09:46:16;20.80;93.20
8711;DHT22;4392;47.400;8.062;2023-05-07T09:48:45;20.60;93.30
8711;DHT22;4392;47.400;8.062;2023-05-07T09:51:29;20.50;93.00
8711;DHT22;4392;47.400;8.062;2023-05-07T09:53:56;20.50;92.80
8711;DHT22;4392;47.400;8.062;2023-05-07T09:56:22;20.60;93.20
8711;DHT22;4392;47.400;8.062;2023-05-07T09:58:53;20.60;92.70
8711;DHT22;4392;47.400;8.062;2023-05-07T10:01:21;20.60;92.70
8711;DHT22;4392;47.400;8.062;2023-05-07T10:03:53;20.70;92.60
8711;DHT22;4392;47.400;8.062;2023-05-07T10:06:23;20.80;92.40
8711;DHT22;4392;47.400;8.062;2023-05-07T10:08:53;20.60;92.10
8711;DHT22;4392;47.400;8.062;2023-05-07T10:11:19;20.60;92.20
8711;DHT22;4392;47.400;8.062;2023-05-07T10:13:54;20.60;92.30
8711;DHT22;4392;47.400;8.062;2023-05-07T10:16:21;20.60;92.20
8711;DHT22;4392;47.400;8.062;2023-05-07T10:18:47;20.60;92.30
8711;DHT22;4392;47.400;8.062;2023-05-07T10:21:21;20.60;92.20
8711;DHT22;4392;47.400;8.062;2023-05-07T10:23:58;20.80;92.30
8711;DHT22;4392;47.400;8.062;2023-05-07T10:26:29;20.80;92.40
8711;DHT22;4392;47.400;8.062;2023-05-07T10:29:01;20.80;92.10
8711;DHT22;4392;47.400;8.062;2023-05-07T10:31:59;20.70;92.00
8711;DHT22;4392;47.400;8.062;2023-05-07T10:34:37;20.60;92.50
8711;DHT22;4392;47.400;8.062;2023-05-07T10:37:09;20.50;92.50
8711;DHT22;4392;47.400;8.062;2023-05-07T10:39:35;20.40;92.90
8711;DHT22;4392;47.400;8.062;2023-05-07T10:42:11;20.70;92.90
8711;DHT22;4392;47.400;8.062;2023-05-07T10:44:37;21.00;91.90
8711;DHT22;4392;47.400;8.062;2023-05-07T10:47:10;21.10;91.60
8711;DHT22;4392;47.400;8.062;2023-05-07T10:52:17;21.30;91.10
8711;DHT22;4392;47.400;8.062;2023-05-07T10:54:46;21.30;91.00
8711;DHT22;4392;47.400;8.062;2023-05-07T10:57:34;21.10;92.00
8711;DHT22;4392;47.400;8.062;2023-05-07T11:00:03;21.30;91.20
8711;DHT22;4392;47.400;8.062;2023-05-07T11:05:32;21.40;90.20
8711;DHT22;4392;47.400;8.062;2023-05-07T11:08:07;21.40;90.10
8711;DHT22;4392;47.400;8.062;2023-05-07T11:13:18;21.10;91.10
8711;DHT22;4392;47.400;8.062;2023-05-07T11:15:47;21.30;90.50
8711;DHT22;4392;47.400;8.062;2023-05-07T11:18:20;21.40;90.10
8711;DHT22;4392;47.400;8.062;2023-05-07T11:20:58;21.40;89.50
8711;DHT22;4392;47.400;8.062;2023-05-07T11:26:07;21.50;90.30
8711;DHT22;4392;47.400;8.062;2023-05-07T11:28:43;21.20;91.90
8711;DHT22;4392;47.400;8.062;2023-05-07T11:31:09;21.10;92.50
8711;DHT22;4392;47.400;8.062;2023-05-07T11:33:36;21.20;92.50
8711;DHT22;4392;47.400;8.062;2023-05-07T11:36:08;21.00;93.00
8711;DHT22;4392;47.400;8.062;2023-05-07T11:38:37;20.90;93.80
8711;DHT22;4392;47.400;8.062;2023-05-07T11:41:07;20.90;93.60
8711;DHT22;4392;47.400;8.062;2023-05-07T11:43:37;21.10;92.50
8711;DHT22;4392;47.400;8.062;2023-05-07T11:46:10;21.20;91.60
8711;DHT22;4392;47.400;8.062;2023-05-07T11:48:36;21.00;91.80
8711;DHT22;4392;47.400;8.062;2023-05-07T11:51:06;21.10;91.90
8711;DHT22;4392;47.400;8.062;2023-05-07T11:53:39;21.30;92.40
8711;DHT22;4392;47.400;8.062;2023-05-07T11:56:12;21.10;93.40
8711;DHT22;4392;47.400;8.062;2023-05-07T11:58:43;21.30;93.50
8711;DHT22;4392;47.400;8.062;2023-05-07T12:01:10;21.20;93.90
8711;DHT22;4392;47.400;8.062;2023-05-07T12:03:43;21.20;92.10
8711;DHT22;4392;47.400;8.062;2023-05-07T12:06:10;21.20;91.60
8711;DHT22;4392;47.400;8.062;2023-05-07T12:08:38;21.20;91.90
8711;DHT22;4392;47.400;8.062;2023-05-07T12:11:16;21.10;91.50
8711;DHT22;4392;47.400;8.062;2023-05-07T12:13:59;21.20;92.00
8711;DHT22;4392;47.400;8.062;2023-05-07T12:16:25;21.20;92.50
8711;DHT22;4392;47.400;8.062;2023-05-07T12:18:52;21.00;93.00
8711;DHT22;4392;47.400;8.062;2023-05-07T12:21:23;21.10;92.20
8711;DHT22;4392;47.400;8.062;2023-05-07T12:23:49;21.10;92.80
8711;DHT22;4392;47.400;8.062;2023-05-07T12:26:15;21.00;93.30
8711;DHT22;4392;47.400;8.062;2023-05-07T12:28:42;20.90;93.90
8711;DHT22;4392;47.400;8.062;2023-05-07T12:31:14;20.90;92.90
8711;DHT22;4392;47.400;8.062;2023-05-07T12:33:52;20.90;93.90
8711;DHT22;4392;47.400;8.062;2023-05-07T12:36:18;20.60;94.00
8711;DHT22;4392;47.400;8.062;2023-05-07T12:38:50;20.60;94.40
8711;DHT22;4392;47.400;8.062;2023-05-07T12:41:15;20.60;95.20
8711;DHT22;4392;47.400;8.062;2023-05-07T12:43:46;20.40;95.20
8711;DHT22;4392;47.400;8.062;2023-05-07T12:46:14;20.40;95.80
8711;DHT22;4392;47.400;8.062;2023-05-07T12:48:48;20.10;94.50
8711;DHT22;4392;47.400;8.062;2023-05-07T12:51:14;19.80;95.50
8711;DHT22;4392;47.400;8.062;2023-05-07T12:53:41;19.50;95.20
8711;DHT22;4392;47.400;8.062;2023-05-07T12:56:15;19.40;94.90
8711;DHT22;4392;47.400;8.062;2023-05-07T12:58:41;19.20;93.10
8711;DHT22;4392;47.400;8.062;2023-05-07T13:01:09;19.20;93.60
8711;DHT22;4392;47.400;8.062;2023-05-07T13:03:38;19.10;94.60
8711;DHT22;4392;47.400;8.062;2023-05-07T13:06:08;18.90;96.70
8711;DHT22;4392;47.400;8.062;2023-05-07T13:08:41;18.80;99.90
8711;DHT22;4392;47.400;8.062;2023-05-07T13:11:15;18.60;99.90
8711;DHT22;4392;47.400;8.062;2023-05-07T13:13:43;18.60;99.90
8711;DHT22;4392;47.400;8.062;2023-05-07T13:16:10;18.60;99.90
8711;DHT22;4392;47.400;8.062;2023-05-07T13:18:43;18.40;99.90
8711;DHT22;4392;47.400;8.062;2023-05-07T13:21:11;18.70;99.90
8711;DHT22;4392;47.400;8.062;2023-05-07T13:23:42;18.80;99.90
8711;DHT22;4392;47.400;8.062;2023-05-07T13:26:08;19.10;99.90
8711;DHT22;4392;47.400;8.062;2023-05-07T13:28:34;19.30;99.90
8711;DHT22;4392;47.400;8.062;2023-05-07T13:31:00;19.10;99.90
8711;DHT22;4392;47.400;8.062;2023-05-07T13:33:26;19.20;99.90
8711;DHT22;4392;47.400;8.062;2023-05-07T13:35:51;19.20;99.90
8711;DHT22;4392;47.400;8.062;2023-05-07T13:38:17;19.30;99.90
8711;DHT22;4392;47.400;8.062;2023-05-07T13:40:49;19.60;99.90
8711;DHT22;4392;47.400;8.062;2023-05-07T13:43:14;19.90;99.90
8711;DHT22;4392;47.400;8.062;2023-05-07T13:45:42;20.10;99.90
8711;DHT22;4392;47.400;8.062;2023-05-07T13:48:13;20.10;99.90
8711;DHT22;4392;47.400;8.062;2023-05-07T13:50:39;20.30;99.90
8711;DHT22;4392;47.400;8.062;2023-05-07T13:53:05;20.50;99.90
8711;DHT22;4392;47.400;8.062;2023-05-07T13:55:31;20.50;99.90
8711;DHT22;4392;47.400;8.062;2023-05-07T13:58:03;20.40;99.90
8711;DHT22;4392;47.400;8.062;2023-05-07T14:00:29;20.40;99.90
8711;DHT22;4392;47.400;8.062;2023-05-07T14:02:58;20.60;99.90
8711;DHT22;4392;47.400;8.062;2023-05-07T14:05:27;20.60;99.90
8711;DHT22;4392;47.400;8.062;2023-05-07T14:08:00;20.60;99.90
8711;DHT22;4392;47.400;8.062;2023-05-07T14:10:28;20.50;99.90
8711;DHT22;4392;47.400;8.062;2023-05-07T14:12:54;20.50;99.90
8711;DHT22;4392;47.400;8.062;2023-05-07T14:15:20;20.60;99.90
8711;DHT22;4392;47.400;8.062;2023-05-07T14:17:49;20.50;99.80
8711;DHT22;4392;47.400;8.062;2023-05-07T14:20:18;20.20;99.90
8711;DHT22;4392;47.400;8.062;2023-05-07T14:22:44;20.20;99.00
8711;DHT22;4392;47.400;8.062;2023-05-07T14:25:10;20.00;99.70
8711;DHT22;4392;47.400;8.062;2023-05-07T14:27:40;20.00;99.30
8711;DHT22;4392;47.400;8.062;2023-05-07T14:30:07;19.80;98.60
8711;DHT22;4392;47.400;8.062;2023-05-07T14:32:39;19.80;98.70
8711;DHT22;4392;47.400;8.062;2023-05-07T14:35:06;19.90;97.40
8711;DHT22;4392;47.400;8.062;2023-05-07T14:37:32;20.00;97.10
8711;DHT22;4392;47.400;8.062;2023-05-07T14:39:57;19.90;97.40
8711;DHT22;4392;47.400;8.062;2023-05-07T14:42:23;19.90;97.40
8711;DHT22;4392;47.400;8.062;2023-05-07T14:44:52;19.80;97.80
8711;DHT22;4392;47.400;8.062;2023-05-07T14:47:18;19.80;96.40
8711;DHT22;4392;47.400;8.062;2023-05-07T14:49:44;19.80;95.80
8711;DHT22;4392;47.400;8.062;2023-05-07T14:52:09;19.70;95.60
8711;DHT22;4392;47.400;8.062;2023-05-07T14:54:36;19.80;95.10
8711;DHT22;4392;47.400;8.062;2023-05-07T14:57:09;19.80;94.50
8711;DHT22;4392;47.400;8.062;2023-05-07T14:59:42;19.80;94.80
8711;DHT22;4392;47.400;8.062;2023-05-07T15:02:08;19.70;94.00
8711;DHT22;4392;47.400;8.062;2023-05-07T15:04:34;19.70;94.50
8711;DHT22;4392;47.400;8.062;2023-05-07T15:07:00;19.80;95.20
8711;DHT22;4392;47.400;8.062;2023-05-07T15:09:32;19.90;94.90
8711;DHT22;4392;47.400;8.062;2023-05-07T15:11:58;19.90;94.50
8711;DHT22;4392;47.400;8.062;2023-05-07T15:14:23;19.90;94.20
8711;DHT22;4392;47.400;8.062;2023-05-07T15:16:49;20.00;94.30
8711;DHT22;4392;47.400;8.062;2023-05-07T15:19:18;20.00;94.00
8711;DHT22;4392;47.400;8.062;2023-05-07T15:21:44;19.90;94.30
8711;DHT22;4392;47.400;8.062;2023-05-07T15:24:09;19.90;94.40
8711;DHT22;4392;47.400;8.062;2023-05-07T15:26:35;20.00;94.70
8711;DHT22;4392;47.400;8.062;2023-05-07T15:29:01;20.00;94.10
8711;DHT22;4392;47.400;8.062;2023-05-07T15:31:33;20.00;94.20
8711;DHT22;4392;47.400;8.062;2023-05-07T15:34:02;20.00;94.30
8711;DHT22;4392;47.400;8.062;2023-05-07T15:36:28;20.00;94.50
8711;DHT22;4392;47.400;8.062;2023-05-07T15:38:57;19.70;95.00
8711;DHT22;4392;47.400;8.062;2023-05-07T15:41:24;19.80;94.70
8711;DHT22;4392;47.400;8.062;2023-05-07T15:43:52;19.80;94.90
8711;DHT22;4392;47.400;8.062;2023-05-07T15:46:22;19.80;95.60
8711;DHT22;4392;47.400;8.062;2023-05-07T15:48:52;19.80;95.70
8711;DHT22;4392;47.400;8.062;2023-05-07T15:51:18;19.80;97.30
8711;DHT22;4392;47.400;8.062;2023-05-07T15:53:49;20.00;98.80
8711;DHT22;4392;47.400;8.062;2023-05-07T15:56:16;20.00;97.00
8711;DHT22;4392;47.400;8.062;2023-05-07T15:58:47;19.80;96.80
8711;DHT22;4392;47.400;8.062;2023-05-07T16:01:18;19.80;96.90
8711;DHT22;4392;47.400;8.062;2023-05-07T16:03:48;19.80;97.80
8711;DHT22;4392;47.400;8.062;2023-05-07T16:06:14;19.80;97.80
8711;DHT22;4392;47.400;8.062;2023-05-07T16:08:42;19.70;98.00
8711;DHT22;4392;47.400;8.062;2023-05-07T16:11:09;19.70;98.50
8711;DHT22;4392;47.400;8.062;2023-05-07T16:13:37;19.60;99.70
8711;DHT22;4392;47.400;8.062;2023-05-07T16:16:06;19.60;99.90
8711;DHT22;4392;47.400;8.062;2023-05-07T16:18:32;19.70;99.90
8711;DHT22;4392;47.400;8.062;2023-05-07T16:20:58;19.80;99.90